createdAt,value
2017-05-17T00:00:31.361Z,0
2017-05-17T00:01:39.439Z,0
2017-05-17T00:02:47.525Z,0
2017-05-17T00:03:55.613Z,0
2017-05-17T00:05:03.695Z,0
2017-05-17T00:06:11.787Z,0
2017-05-17T00:07:19.879Z,0
2017-05-17T00:08:27.983Z,0
2017-05-17T00:09:36.042Z,0
2017-05-17T00:10:44.130Z,0
2017-05-17T00:11:52.223Z,0
2017-05-17T00:13:00.300Z,0
2017-05-17T00:14:08.386Z,0
2017-05-17T00:15:16.471Z,0
2017-05-17T00:16:24.559Z,0
2017-05-17T00:17:32.647Z,0
2017-05-17T00:18:40.732Z,0
2017-05-17T00:19:48.837Z,0
2017-05-17T00:20:56.928Z,0
2017-05-17T00:22:05.009Z,0
2017-05-17T00:23:13.093Z,0
2017-05-17T00:24:21.179Z,0
2017-05-17T00:25:29.264Z,0
2017-05-17T00:26:37.350Z,0
2017-05-17T00:27:45.440Z,0
2017-05-17T00:28:53.523Z,0
2017-05-17T00:30:01.616Z,0
2017-05-17T00:31:09.701Z,0
2017-05-17T00:32:17.790Z,0
2017-05-17T00:33:25.999Z,0
2017-05-17T00:34:34.034Z,0
2017-05-17T00:35:42.049Z,0
2017-05-17T00:36:50.159Z,0
2017-05-17T00:37:58.244Z,0
2017-05-17T00:39:06.302Z,0
2017-05-17T00:40:14.388Z,0
2017-05-17T00:41:22.475Z,0
2017-05-17T00:42:30.639Z,0
2017-05-17T00:43:38.651Z,0
2017-05-17T00:44:46.735Z,0
2017-05-17T00:45:54.822Z,0
2017-05-17T00:47:02.908Z,0
2017-05-17T00:48:10.992Z,0
2017-05-17T00:49:19.077Z,0
2017-05-17T00:50:27.162Z,0
2017-05-17T00:51:42.470Z,0
2017-05-17T00:52:43.347Z,0
2017-05-17T00:53:51.426Z,0
2017-05-17T00:54:59.511Z,0
2017-05-17T00:56:07.600Z,0
2017-05-17T00:57:15.683Z,0
2017-05-17T00:58:23.775Z,0
2017-05-17T00:59:31.853Z,0
2017-05-17T01:00:39.950Z,0
2017-05-17T01:01:48.027Z,0
2017-05-17T01:02:56.113Z,0
2017-05-17T01:04:04.224Z,0
2017-05-17T01:05:12.291Z,0
2017-05-17T01:06:20.375Z,0
2017-05-17T01:07:28.458Z,0
2017-05-17T01:08:36.544Z,0
2017-05-17T01:09:44.631Z,0
2017-05-17T01:10:52.715Z,0
2017-05-17T01:12:00.803Z,0
2017-05-17T01:13:08.887Z,0
2017-05-17T01:14:16.984Z,0
2017-05-17T01:15:25.069Z,0
2017-05-17T01:16:33.148Z,0
2017-05-17T01:17:41.231Z,0
2017-05-17T01:18:49.323Z,0
2017-05-17T01:19:57.407Z,0
2017-05-17T01:21:05.488Z,0
2017-05-17T01:22:13.575Z,0
2017-05-17T01:23:21.663Z,0
2017-05-17T01:24:29.870Z,0
2017-05-17T01:25:37.833Z,0
2017-05-17T01:26:45.921Z,0
2017-05-17T01:27:54.020Z,0
2017-05-17T01:29:02.097Z,0
2017-05-17T01:30:10.182Z,0
2017-05-17T01:31:18.268Z,0
2017-05-17T01:32:26.356Z,0
2017-05-17T01:33:34.441Z,0
2017-05-17T01:34:42.529Z,0
2017-05-17T01:35:50.612Z,0
2017-05-17T01:36:58.697Z,0
2017-05-17T01:38:06.782Z,0
2017-05-17T01:39:14.877Z,0
2017-05-17T01:40:22.955Z,0
2017-05-17T01:41:31.100Z,0
2017-05-17T01:42:39.132Z,0
2017-05-17T01:43:47.220Z,0
2017-05-17T01:44:55.303Z,0
2017-05-17T01:46:03.390Z,0
2017-05-17T01:47:11.474Z,0
2017-05-17T01:48:19.561Z,0
2017-05-17T01:49:27.647Z,0
2017-05-17T01:50:35.735Z,0
2017-05-17T01:51:43.826Z,0
2017-05-17T01:52:51.917Z,0
2017-05-17T01:53:59.998Z,0
2017-05-17T01:55:08.084Z,0
2017-05-17T01:56:16.171Z,0
2017-05-17T01:57:24.256Z,0
2017-05-17T01:58:32.339Z,0
2017-05-17T01:59:40.427Z,0
2017-05-17T02:00:48.514Z,0
2017-05-17T02:01:56.599Z,0
2017-05-17T02:03:04.683Z,0
2017-05-17T02:04:12.769Z,0
2017-05-17T02:05:20.859Z,0
2017-05-17T02:06:28.943Z,0
2017-05-17T02:07:37.030Z,0
2017-05-17T02:08:45.116Z,0
2017-05-17T02:09:53.202Z,0
2017-05-17T02:11:01.287Z,0
2017-05-17T02:12:09.373Z,0
2017-05-17T02:13:17.458Z,0
2017-05-17T02:14:25.545Z,0
2017-05-17T02:15:33.743Z,0
2017-05-17T02:16:41.718Z,0
2017-05-17T02:17:49.803Z,0
2017-05-17T02:18:57.889Z,0
2017-05-17T02:20:05.974Z,0
2017-05-17T02:21:14.061Z,0
2017-05-17T02:22:22.147Z,0
2017-05-17T02:23:30.242Z,0
2017-05-17T02:24:38.322Z,0
2017-05-17T02:25:46.403Z,0
2017-05-17T02:26:54.489Z,0
2017-05-17T02:28:02.575Z,0
2017-05-17T02:29:10.661Z,0
2017-05-17T02:30:18.753Z,0
2017-05-17T02:31:26.847Z,0
2017-05-17T02:32:34.949Z,0
2017-05-17T02:33:43.010Z,0
2017-05-17T02:34:51.096Z,0
2017-05-17T02:35:59.208Z,0
2017-05-17T02:37:07.278Z,0
2017-05-17T02:38:15.373Z,0
2017-05-17T02:39:23.446Z,0
2017-05-17T02:40:31.580Z,0
2017-05-17T02:41:39.719Z,0
2017-05-17T02:42:47.702Z,0
2017-05-17T02:43:55.791Z,0
2017-05-17T02:45:03.873Z,0
2017-05-17T02:46:11.960Z,0
2017-05-17T02:47:20.048Z,0
2017-05-17T02:48:28.135Z,0
2017-05-17T02:49:36.221Z,0
2017-05-17T02:50:44.304Z,0
2017-05-17T02:51:52.389Z,0
2017-05-17T02:53:00.477Z,0
2017-05-17T02:54:08.561Z,0
2017-05-17T02:55:16.648Z,0
2017-05-17T02:56:24.730Z,0
2017-05-17T02:57:32.818Z,0
2017-05-17T02:58:40.991Z,0
2017-05-17T02:59:48.991Z,0
2017-05-17T03:00:57.080Z,0
2017-05-17T03:02:05.159Z,0
2017-05-17T03:03:13.246Z,0
2017-05-17T03:04:21.332Z,0
2017-05-17T03:05:29.477Z,0
2017-05-17T03:06:37.513Z,0
2017-05-17T03:07:45.591Z,0
2017-05-17T03:08:53.676Z,0
2017-05-17T03:10:01.764Z,0
2017-05-17T03:11:09.873Z,0
2017-05-17T03:12:17.933Z,0
2017-05-17T03:13:26.019Z,0
2017-05-17T03:14:34.104Z,0
2017-05-17T03:15:42.228Z,0
2017-05-17T03:16:50.278Z,0
2017-05-17T03:17:58.369Z,0
2017-05-17T03:19:06.454Z,0
2017-05-17T03:20:14.539Z,0
2017-05-17T03:21:22.628Z,0
2017-05-17T03:22:30.717Z,0
2017-05-17T03:23:38.801Z,0
2017-05-17T03:24:46.912Z,0
2017-05-17T03:25:54.982Z,0
2017-05-17T03:27:03.097Z,0
2017-05-17T03:28:11.144Z,0
2017-05-17T03:29:19.229Z,0
2017-05-17T03:30:27.317Z,0
2017-05-17T03:31:35.399Z,0
2017-05-17T03:32:43.488Z,0
2017-05-17T03:33:51.573Z,0
2017-05-17T03:34:59.659Z,0
2017-05-17T03:36:07.745Z,0
2017-05-17T03:37:15.830Z,0
2017-05-17T03:38:23.915Z,0
2017-05-17T03:39:32.007Z,0
2017-05-17T03:40:40.086Z,0
2017-05-17T03:41:48.171Z,0
2017-05-17T03:42:56.257Z,0
2017-05-17T03:44:04.343Z,0
2017-05-17T03:45:12.430Z,0
2017-05-17T03:46:20.515Z,0
2017-05-17T03:47:28.599Z,0
2017-05-17T03:48:36.683Z,0
2017-05-17T03:49:44.771Z,0
2017-05-17T03:50:52.861Z,0
2017-05-17T03:52:00.968Z,0
2017-05-17T03:53:09.028Z,0
2017-05-17T03:54:17.114Z,4
2017-05-17T03:55:25.209Z,4
2017-05-17T03:56:33.289Z,4
2017-05-17T03:57:41.372Z,4
2017-05-17T03:58:49.456Z,0
2017-05-17T03:59:57.541Z,0
2017-05-17T04:01:05.628Z,0
2017-05-17T04:02:13.714Z,0
2017-05-17T04:03:21.798Z,0
2017-05-17T04:04:29.885Z,0
2017-05-17T04:05:37.972Z,0
2017-05-17T04:06:46.056Z,0
2017-05-17T04:07:54.153Z,0
2017-05-17T04:09:02.226Z,0
2017-05-17T04:10:10.312Z,0
2017-05-17T04:11:18.398Z,4
2017-05-17T04:12:26.920Z,4
2017-05-17T04:13:34.755Z,4
2017-05-17T04:14:43.018Z,4
2017-05-17T04:15:50.995Z,4
2017-05-17T04:16:59.071Z,0
2017-05-17T04:18:07.205Z,4
2017-05-17T04:19:15.496Z,4
2017-05-17T04:20:23.542Z,0
2017-05-17T04:21:31.473Z,4
2017-05-17T04:22:39.258Z,4
2017-05-17T04:23:47.347Z,4
2017-05-17T04:24:55.432Z,4
2017-05-17T04:26:03.518Z,0
2017-05-17T04:27:11.603Z,4
2017-05-17T04:28:19.687Z,4
2017-05-17T04:29:28.363Z,4
2017-05-17T04:30:35.866Z,4
2017-05-17T04:31:43.945Z,4
2017-05-17T04:32:52.057Z,8
2017-05-17T04:34:00.237Z,4
2017-05-17T04:35:08.204Z,4
2017-05-17T04:36:16.291Z,4
2017-05-17T04:37:24.373Z,4
2017-05-17T04:38:32.458Z,8
2017-05-17T04:39:40.547Z,8
2017-05-17T04:40:48.633Z,4
2017-05-17T04:41:56.722Z,4
2017-05-17T04:43:04.807Z,4
2017-05-17T04:44:12.923Z,8
2017-05-17T04:45:20.988Z,8
2017-05-17T04:46:29.068Z,4
2017-05-17T04:47:37.646Z,4
2017-05-17T04:48:45.734Z,8
2017-05-17T04:49:53.644Z,8
2017-05-17T04:51:02.034Z,4
2017-05-17T04:52:09.502Z,8
2017-05-17T04:53:17.999Z,8
2017-05-17T04:54:26.698Z,8
2017-05-17T04:55:34.515Z,8
2017-05-17T04:56:42.340Z,12
2017-05-17T04:57:50.659Z,8
2017-05-17T04:58:58.273Z,12
2017-05-17T05:00:06.821Z,20
2017-05-17T05:01:14.622Z,20
2017-05-17T05:02:24.167Z,24
2017-05-17T05:03:30.529Z,24
2017-05-17T05:04:38.452Z,24
2017-05-17T05:05:46.685Z,20
2017-05-17T05:06:54.849Z,16
2017-05-17T05:08:02.711Z,12
2017-05-17T05:09:11.066Z,12
2017-05-17T05:10:19.227Z,12
2017-05-17T05:11:27.461Z,12
2017-05-17T05:12:35.052Z,12
2017-05-17T05:13:43.137Z,12
2017-05-17T05:14:51.587Z,16
2017-05-17T05:15:59.310Z,12
2017-05-17T05:17:07.395Z,12
2017-05-17T05:18:17.137Z,16
2017-05-17T05:19:28.164Z,12
2017-05-17T05:20:34.409Z,12
2017-05-17T05:21:41.554Z,12
2017-05-17T05:22:48.876Z,12
2017-05-17T05:23:57.928Z,12
2017-05-17T05:25:05.155Z,12
2017-05-17T05:26:13.741Z,12
2017-05-17T05:27:21.487Z,8
2017-05-17T05:28:28.705Z,12
2017-05-17T05:29:37.707Z,12
2017-05-17T05:30:44.639Z,12
2017-05-17T05:31:52.674Z,12
2017-05-17T05:33:00.642Z,12
2017-05-17T05:34:09.749Z,12
2017-05-17T05:35:17.384Z,12
2017-05-17T05:36:25.129Z,12
2017-05-17T05:37:33.566Z,16
2017-05-17T05:38:41.708Z,12
2017-05-17T05:39:49.359Z,12
2017-05-17T05:40:57.770Z,16
2017-05-17T05:42:05.650Z,12
2017-05-17T05:43:13.484Z,12
2017-05-17T05:44:21.559Z,12
2017-05-17T05:45:31.161Z,16
2017-05-17T05:46:38.213Z,12
2017-05-17T05:47:46.265Z,12
2017-05-17T05:48:54.201Z,12
2017-05-17T05:50:01.991Z,16
2017-05-17T05:51:10.153Z,12
2017-05-17T05:52:18.166Z,16
2017-05-17T05:53:26.849Z,16
2017-05-17T05:54:34.563Z,12
2017-05-17T05:55:42.796Z,16
2017-05-17T05:56:50.514Z,12
2017-05-17T05:57:58.973Z,16
2017-05-17T05:59:06.712Z,16
2017-05-17T06:00:14.927Z,16
2017-05-17T06:01:23.003Z,16
2017-05-17T06:02:30.825Z,16
2017-05-17T06:03:38.912Z,16
2017-05-17T06:04:46.998Z,16
2017-05-17T06:05:55.087Z,16
2017-05-17T06:07:03.171Z,20
2017-05-17T06:08:11.280Z,20
2017-05-17T06:09:19.341Z,16
2017-05-17T06:10:27.514Z,16
2017-05-17T06:11:35.512Z,16
2017-05-17T06:12:43.596Z,16
2017-05-17T06:13:51.679Z,16
2017-05-17T06:14:59.769Z,16
2017-05-17T06:16:07.853Z,20
2017-05-17T06:17:15.951Z,16
2017-05-17T06:18:24.024Z,20
2017-05-17T06:19:32.120Z,16
2017-05-17T06:20:40.197Z,16
2017-05-17T06:21:48.280Z,20
2017-05-17T06:22:56.582Z,16
2017-05-17T06:24:04.631Z,20
2017-05-17T06:25:12.781Z,16
2017-05-17T06:26:20.783Z,20
2017-05-17T06:27:30.703Z,20
2017-05-17T06:28:36.998Z,20
2017-05-17T06:29:45.014Z,20
2017-05-17T06:30:53.311Z,20
2017-05-17T06:32:01.449Z,20
2017-05-17T06:33:09.521Z,20
2017-05-17T06:34:17.465Z,20
2017-05-17T06:35:25.445Z,20
2017-05-17T06:36:33.664Z,20
2017-05-17T06:37:41.812Z,24
2017-05-17T06:38:49.769Z,24
2017-05-17T06:39:57.975Z,24
2017-05-17T06:41:05.981Z,24
2017-05-17T06:42:13.944Z,24
2017-05-17T06:43:21.960Z,24
2017-05-17T06:44:30.138Z,24
2017-05-17T06:45:38.327Z,28
2017-05-17T06:46:46.691Z,28
2017-05-17T06:47:54.334Z,32
2017-05-17T06:49:02.916Z,36
2017-05-17T06:50:10.882Z,36
2017-05-17T06:51:18.624Z,36
2017-05-17T06:52:26.794Z,36
2017-05-17T06:53:35.167Z,36
2017-05-17T06:54:42.843Z,36
2017-05-17T06:55:50.950Z,36
2017-05-17T06:56:58.935Z,36
2017-05-17T06:58:07.022Z,32
2017-05-17T06:59:15.104Z,32
2017-05-17T07:00:23.193Z,36
2017-05-17T07:01:31.275Z,36
2017-05-17T07:02:39.359Z,32
2017-05-17T07:03:47.445Z,36
2017-05-17T07:04:55.532Z,36
2017-05-17T07:06:03.662Z,36
2017-05-17T07:07:11.703Z,32
2017-05-17T07:08:19.813Z,36
2017-05-17T07:09:27.900Z,32
2017-05-17T07:10:35.961Z,36
2017-05-17T07:11:44.093Z,36
2017-05-17T07:12:52.130Z,40
2017-05-17T07:14:00.215Z,40
2017-05-17T07:15:08.302Z,44
2017-05-17T07:16:16.386Z,44
2017-05-17T07:17:24.473Z,44
2017-05-17T07:18:32.559Z,48
2017-05-17T07:19:40.650Z,48
2017-05-17T07:20:48.732Z,48
2017-05-17T07:21:56.821Z,48
2017-05-17T07:23:04.900Z,48
2017-05-17T07:24:12.987Z,48
2017-05-17T07:25:21.077Z,48
2017-05-17T07:26:29.159Z,48
2017-05-17T07:27:37.245Z,52
2017-05-17T07:28:45.332Z,52
2017-05-17T07:29:53.413Z,52
2017-05-17T07:31:01.502Z,52
2017-05-17T07:32:09.594Z,56
2017-05-17T07:33:17.672Z,52
2017-05-17T07:34:25.758Z,56
2017-05-17T07:35:33.845Z,56
2017-05-17T07:36:41.930Z,56
2017-05-17T07:37:50.017Z,56
2017-05-17T07:38:58.102Z,52
2017-05-17T07:40:06.188Z,52
2017-05-17T07:41:14.272Z,52
2017-05-17T07:42:22.360Z,52
2017-05-17T07:43:30.444Z,56
2017-05-17T07:44:38.529Z,56
2017-05-17T07:45:46.616Z,56
2017-05-17T07:46:54.704Z,52
2017-05-17T07:48:02.787Z,56
2017-05-17T07:49:10.894Z,56
2017-05-17T07:50:18.961Z,56
2017-05-17T07:51:27.046Z,52
2017-05-17T07:52:35.134Z,52
2017-05-17T07:53:43.219Z,56
2017-05-17T07:54:51.311Z,52
2017-05-17T07:55:59.390Z,52
2017-05-17T07:57:07.476Z,48
2017-05-17T07:58:15.563Z,48
2017-05-17T07:59:23.648Z,48
2017-05-17T08:00:31.746Z,44
2017-05-17T08:01:39.819Z,48
2017-05-17T08:02:47.931Z,48
2017-05-17T08:03:56.012Z,48
2017-05-17T08:05:04.080Z,48
2017-05-17T08:06:12.165Z,52
2017-05-17T08:07:20.251Z,48
2017-05-17T08:08:28.338Z,52
2017-05-17T08:09:36.425Z,52
2017-05-17T08:10:44.511Z,52
2017-05-17T08:11:52.595Z,52
2017-05-17T08:13:00.680Z,52
2017-05-17T08:14:08.771Z,48
2017-05-17T08:15:16.854Z,48
2017-05-17T08:16:24.969Z,48
2017-05-17T08:17:33.030Z,48
2017-05-17T08:18:41.115Z,48
2017-05-17T08:19:49.203Z,48
2017-05-17T08:20:57.287Z,48
2017-05-17T08:22:05.373Z,48
2017-05-17T08:23:13.458Z,48
2017-05-17T08:24:21.546Z,48
2017-05-17T08:25:29.633Z,44
2017-05-17T08:26:37.718Z,44
2017-05-17T08:27:45.807Z,44
2017-05-17T08:28:53.893Z,44
2017-05-17T08:30:01.981Z,44
2017-05-17T08:31:10.067Z,44
2017-05-17T08:32:18.149Z,44
2017-05-17T08:33:26.246Z,40
2017-05-17T08:34:34.387Z,44
2017-05-17T08:35:42.411Z,40
2017-05-17T08:36:50.497Z,44
2017-05-17T08:37:58.584Z,40
2017-05-17T08:39:06.671Z,40
2017-05-17T08:40:14.759Z,40
2017-05-17T08:41:22.844Z,40
2017-05-17T08:42:30.930Z,40
2017-05-17T08:43:39.020Z,40
2017-05-17T08:44:47.105Z,40
2017-05-17T08:45:55.193Z,40
2017-05-17T08:47:03.281Z,40
2017-05-17T08:48:11.391Z,40
2017-05-17T08:49:19.452Z,40
2017-05-17T08:50:27.540Z,40
2017-05-17T08:51:35.624Z,36
2017-05-17T08:52:43.720Z,36
2017-05-17T08:53:51.803Z,40
2017-05-17T08:54:59.893Z,36
2017-05-17T08:56:07.977Z,40
2017-05-17T08:57:16.065Z,40
2017-05-17T08:58:24.153Z,40
2017-05-17T08:59:32.244Z,40
2017-05-17T09:00:40.329Z,40
2017-05-17T09:01:48.415Z,40
2017-05-17T09:02:56.501Z,40
2017-05-17T09:04:04.595Z,36
2017-05-17T09:05:12.708Z,36
2017-05-17T09:06:20.762Z,40
2017-05-17T09:07:28.855Z,40
2017-05-17T09:08:36.942Z,36
2017-05-17T09:09:45.021Z,36
2017-05-17T09:10:53.157Z,40
2017-05-17T09:12:01.192Z,36
2017-05-17T09:13:09.282Z,36
2017-05-17T09:14:17.370Z,36
2017-05-17T09:15:25.461Z,36
2017-05-17T09:16:33.543Z,36
2017-05-17T09:17:41.627Z,36
2017-05-17T09:18:49.712Z,36
2017-05-17T09:19:57.800Z,36
2017-05-17T09:21:05.914Z,36
2017-05-17T09:22:13.997Z,36
2017-05-17T09:23:22.062Z,36
2017-05-17T09:24:30.148Z,40
2017-05-17T09:25:38.260Z,36
2017-05-17T09:26:46.322Z,36
2017-05-17T09:27:54.406Z,36
2017-05-17T09:29:02.495Z,36
2017-05-17T09:30:10.579Z,40
2017-05-17T09:31:18.666Z,40
2017-05-17T09:32:26.754Z,36
2017-05-17T09:33:34.869Z,40
2017-05-17T09:34:42.930Z,40
2017-05-17T09:35:51.049Z,40
2017-05-17T09:36:59.102Z,40
2017-05-17T09:38:07.185Z,40
2017-05-17T09:39:15.287Z,40
2017-05-17T09:40:23.364Z,40
2017-05-17T09:41:31.452Z,40
2017-05-17T09:42:39.541Z,36
2017-05-17T09:43:47.626Z,40
2017-05-17T09:44:55.713Z,40
2017-05-17T09:46:03.797Z,40
2017-05-17T09:47:11.885Z,40
2017-05-17T09:48:20.004Z,36
2017-05-17T09:49:28.058Z,40
2017-05-17T09:50:36.146Z,40
2017-05-17T09:51:44.233Z,40
2017-05-17T09:52:52.337Z,40
2017-05-17T09:54:00.413Z,40
2017-05-17T09:55:08.496Z,44
2017-05-17T09:56:16.593Z,40.00
2017-05-17T09:57:24.667Z,40
2017-05-17T09:58:32.757Z,40
2017-05-17T09:59:40.841Z,40
2017-05-17T10:00:48.954Z,40
2017-05-17T10:01:57.016Z,40
2017-05-17T10:03:05.105Z,40
2017-05-17T10:04:13.249Z,40
2017-05-17T10:05:21.279Z,40
2017-05-17T10:06:29.362Z,40
2017-05-17T10:07:37.453Z,40
2017-05-17T10:08:45.533Z,40
2017-05-17T10:09:53.623Z,40
2017-05-17T10:11:01.708Z,44
2017-05-17T10:12:09.799Z,40
2017-05-17T10:13:17.891Z,40
2017-05-17T10:14:25.977Z,40
2017-05-17T10:15:34.062Z,44
2017-05-17T10:16:42.156Z,40
2017-05-17T10:17:50.236Z,44
2017-05-17T10:18:58.323Z,44
2017-05-17T10:20:06.412Z,40
2017-05-17T10:21:14.498Z,44
2017-05-17T10:22:22.584Z,40
2017-05-17T10:23:30.673Z,40
2017-05-17T10:24:38.758Z,44
2017-05-17T10:25:46.866Z,44
2017-05-17T10:26:54.942Z,44
2017-05-17T10:28:03.045Z,40
2017-05-17T10:29:11.106Z,44
2017-05-17T10:30:19.313Z,44
2017-05-17T10:31:27.281Z,44
2017-05-17T10:32:35.367Z,44
2017-05-17T10:33:43.456Z,40
2017-05-17T10:34:51.539Z,40
2017-05-17T10:35:59.628Z,40
2017-05-17T10:37:07.714Z,44
2017-05-17T10:38:15.805Z,40
2017-05-17T10:39:24.772Z,40
2017-05-17T10:40:32.280Z,40
2017-05-17T10:41:40.063Z,40
2017-05-17T10:42:48.173Z,40
2017-05-17T10:43:56.239Z,40
2017-05-17T10:45:04.324Z,40
2017-05-17T10:46:12.409Z,40
2017-05-17T10:47:20.499Z,44
2017-05-17T10:48:28.583Z,44
2017-05-17T10:49:36.673Z,44
2017-05-17T10:50:44.759Z,44
2017-05-17T10:51:52.861Z,40
2017-05-17T10:53:00.937Z,40
2017-05-17T10:54:09.028Z,40
2017-05-17T10:55:17.107Z,40
2017-05-17T10:56:25.194Z,40
2017-05-17T10:57:33.282Z,40
2017-05-17T10:58:41.370Z,40
2017-05-17T10:59:49.456Z,40
2017-05-17T11:00:57.547Z,44
2017-05-17T11:02:05.635Z,44
2017-05-17T11:03:13.721Z,40
2017-05-17T11:04:21.807Z,40
2017-05-17T11:05:29.894Z,40
2017-05-17T11:06:37.982Z,40
2017-05-17T11:07:46.068Z,40
2017-05-17T11:08:54.184Z,40
2017-05-17T11:10:02.248Z,40
2017-05-17T11:11:10.336Z,40
2017-05-17T11:12:18.432Z,40
2017-05-17T11:13:26.509Z,40
2017-05-17T11:14:34.595Z,40
2017-05-17T11:15:42.690Z,40
2017-05-17T11:16:50.777Z,40
2017-05-17T11:17:58.872Z,40
2017-05-17T11:19:06.975Z,40
2017-05-17T11:20:15.040Z,40
2017-05-17T11:21:23.127Z,36
2017-05-17T11:22:31.210Z,40
2017-05-17T11:23:39.306Z,40
2017-05-17T11:24:47.388Z,40
2017-05-17T11:25:55.473Z,36
2017-05-17T11:27:03.561Z,36
2017-05-17T11:28:11.648Z,40
2017-05-17T11:29:19.735Z,40
2017-05-17T11:30:27.824Z,40
2017-05-17T11:31:35.910Z,36
2017-05-17T11:32:44.042Z,36
2017-05-17T11:33:52.082Z,40
2017-05-17T11:35:00.171Z,40
2017-05-17T11:36:08.258Z,36
2017-05-17T11:37:16.346Z,36
2017-05-17T11:38:24.434Z,40
2017-05-17T11:39:32.520Z,36
2017-05-17T11:40:40.606Z,36
2017-05-17T11:41:48.692Z,36
2017-05-17T11:42:56.790Z,36
2017-05-17T11:44:04.872Z,36
2017-05-17T11:45:12.961Z,36
2017-05-17T11:46:21.051Z,32
2017-05-17T11:47:29.135Z,36
2017-05-17T11:48:37.223Z,36
2017-05-17T11:49:45.310Z,36
2017-05-17T11:50:53.404Z,36
2017-05-17T11:52:01.483Z,32
2017-05-17T11:53:09.567Z,36
2017-05-17T11:54:17.663Z,32
2017-05-17T11:55:25.746Z,32
2017-05-17T11:56:33.834Z,32
2017-05-17T11:57:41.920Z,32
2017-05-17T11:58:50.009Z,36
2017-05-17T11:59:58.097Z,32
2017-05-17T12:01:06.182Z,32
2017-05-17T12:02:14.270Z,32
2017-05-17T12:03:22.360Z,32
2017-05-17T12:04:30.449Z,32
2017-05-17T12:05:38.533Z,32
2017-05-17T12:06:46.620Z,32
2017-05-17T12:07:54.708Z,32
2017-05-17T12:09:02.793Z,32
2017-05-17T12:10:10.890Z,32
2017-05-17T12:11:18.971Z,32
2017-05-17T12:12:27.081Z,32
2017-05-17T12:13:35.143Z,32
2017-05-17T12:14:43.231Z,32
2017-05-17T12:15:51.319Z,28
2017-05-17T12:16:59.408Z,28
2017-05-17T12:18:07.495Z,32
2017-05-17T12:19:15.581Z,32
2017-05-17T12:20:23.668Z,28
2017-05-17T12:21:31.779Z,32
2017-05-17T12:22:39.844Z,32
2017-05-17T12:23:47.933Z,32
2017-05-17T12:24:56.020Z,28
2017-05-17T12:26:04.108Z,32
2017-05-17T12:27:12.196Z,32
2017-05-17T12:28:20.285Z,28
2017-05-17T12:29:28.371Z,28
2017-05-17T12:30:36.464Z,32
2017-05-17T12:31:44.539Z,32
2017-05-17T12:32:52.639Z,28
2017-05-17T12:34:00.730Z,28
2017-05-17T12:35:08.815Z,28
2017-05-17T12:36:16.927Z,28
2017-05-17T12:37:24.991Z,28
2017-05-17T12:38:33.086Z,28
2017-05-17T12:39:41.165Z,28
2017-05-17T12:40:49.253Z,32
2017-05-17T12:41:57.340Z,28
2017-05-17T12:43:05.431Z,28
2017-05-17T12:44:13.522Z,28
2017-05-17T12:45:21.607Z,24
2017-05-17T12:46:29.696Z,28
2017-05-17T12:47:37.783Z,28
2017-05-17T12:48:45.871Z,28
2017-05-17T12:49:53.993Z,28
2017-05-17T12:51:02.090Z,28
2017-05-17T12:52:10.133Z,28
2017-05-17T12:53:18.223Z,28
2017-05-17T12:54:26.318Z,28
2017-05-17T12:55:34.401Z,28
2017-05-17T12:56:42.483Z,28
2017-05-17T12:57:50.569Z,28
2017-05-17T12:58:58.657Z,24
2017-05-17T13:00:06.746Z,28
2017-05-17T13:01:14.858Z,28
2017-05-17T13:02:22.922Z,28
2017-05-17T13:03:31.031Z,24
2017-05-17T13:04:39.098Z,28
2017-05-17T13:05:47.186Z,28
2017-05-17T13:06:55.305Z,28
2017-05-17T13:08:03.426Z,24
2017-05-17T13:09:11.448Z,24
2017-05-17T13:10:19.541Z,28
2017-05-17T13:11:27.624Z,28
2017-05-17T13:12:35.710Z,24
2017-05-17T13:13:43.799Z,24
2017-05-17T13:14:51.887Z,28
2017-05-17T13:15:59.974Z,28
2017-05-17T13:17:08.060Z,24
2017-05-17T13:18:16.148Z,24
2017-05-17T13:19:24.233Z,24
2017-05-17T13:20:32.322Z,28
2017-05-17T13:21:40.408Z,24
2017-05-17T13:22:48.498Z,24
2017-05-17T13:23:56.589Z,24
2017-05-17T13:25:04.685Z,24
2017-05-17T13:26:12.762Z,28
2017-05-17T13:27:20.847Z,24
2017-05-17T13:28:28.935Z,28
2017-05-17T13:29:37.032Z,24
2017-05-17T13:30:45.110Z,24
2017-05-17T13:31:53.208Z,28
2017-05-17T13:33:01.285Z,24
2017-05-17T13:34:09.376Z,24
2017-05-17T13:35:17.471Z,24
2017-05-17T13:36:25.558Z,24
2017-05-17T13:37:33.649Z,28
2017-05-17T13:38:41.738Z,24
2017-05-17T13:39:49.949Z,24
2017-05-17T13:40:57.918Z,24
2017-05-17T13:42:06.001Z,24
2017-05-17T13:43:14.087Z,24
2017-05-17T13:44:22.177Z,24
2017-05-17T13:45:30.266Z,20
2017-05-17T13:46:38.355Z,24
2017-05-17T13:47:46.447Z,24
2017-05-17T13:48:54.537Z,24
2017-05-17T13:50:02.632Z,20
2017-05-17T13:51:10.712Z,20
2017-05-17T13:52:18.809Z,24
2017-05-17T13:53:26.892Z,24
2017-05-17T13:54:34.974Z,20
2017-05-17T13:55:43.061Z,20
2017-05-17T13:56:51.151Z,24
2017-05-17T13:57:59.239Z,24
2017-05-17T13:59:07.328Z,24
2017-05-17T14:00:15.414Z,20
2017-05-17T14:01:23.504Z,24
2017-05-17T14:02:31.587Z,24
2017-05-17T14:03:39.676Z,24
2017-05-17T14:04:47.763Z,24
2017-05-17T14:05:55.859Z,20
2017-05-17T14:07:03.950Z,20
2017-05-17T14:08:12.034Z,20
2017-05-17T14:09:20.128Z,24
2017-05-17T14:10:28.217Z,24
2017-05-17T14:11:36.303Z,20
2017-05-17T14:12:44.394Z,20
2017-05-17T14:13:52.480Z,20
2017-05-17T14:15:00.625Z,20
2017-05-17T14:16:08.657Z,24
2017-05-17T14:17:16.748Z,20
2017-05-17T14:18:24.834Z,20
2017-05-17T14:19:32.919Z,20
2017-05-17T14:20:41.008Z,20
2017-05-17T14:21:49.094Z,20
2017-05-17T14:22:57.185Z,24
2017-05-17T14:24:05.270Z,24
2017-05-17T14:25:13.358Z,20
2017-05-17T14:26:21.448Z,20
2017-05-17T14:27:29.533Z,20
2017-05-17T14:28:37.621Z,20
2017-05-17T14:29:56.293Z,20
2017-05-17T14:30:53.801Z,20
2017-05-17T14:32:01.892Z,20
2017-05-17T14:33:09.986Z,20
2017-05-17T14:34:18.060Z,20
2017-05-17T14:35:26.148Z,20
2017-05-17T14:36:34.245Z,20
2017-05-17T14:37:42.366Z,20
2017-05-17T14:38:50.423Z,20
2017-05-17T14:39:58.515Z,20
2017-05-17T14:41:06.600Z,20
2017-05-17T14:42:14.688Z,20
2017-05-17T14:43:22.777Z,20
2017-05-17T14:44:30.887Z,20
2017-05-17T14:45:38.950Z,20
2017-05-17T14:46:47.038Z,20
2017-05-17T14:47:55.174Z,20
2017-05-17T14:49:03.214Z,20
2017-05-17T14:50:11.301Z,20
2017-05-17T14:51:19.398Z,20
2017-05-17T14:52:27.477Z,20
2017-05-17T14:53:35.574Z,20
2017-05-17T14:54:43.653Z,16
2017-05-17T14:55:51.741Z,16
2017-05-17T14:56:59.829Z,20
2017-05-17T14:58:07.918Z,20
2017-05-17T14:59:16.005Z,20
2017-05-17T15:00:24.092Z,20
2017-05-17T15:01:32.182Z,20
2017-05-17T15:02:40.270Z,20
2017-05-17T15:03:48.356Z,20
2017-05-17T15:04:56.445Z,20
2017-05-17T15:06:04.531Z,16
2017-05-17T15:07:12.626Z,16
2017-05-17T15:08:20.717Z,20
2017-05-17T15:09:28.806Z,16
2017-05-17T15:10:36.891Z,20
2017-05-17T15:11:44.977Z,20
2017-05-17T15:12:53.068Z,20
2017-05-17T15:14:01.164Z,20
2017-05-17T15:15:09.246Z,16
2017-05-17T15:16:17.336Z,16
2017-05-17T15:17:25.425Z,16
2017-05-17T15:18:33.512Z,16
2017-05-17T15:19:41.606Z,20
2017-05-17T15:20:49.689Z,20
2017-05-17T15:21:57.777Z,20
2017-05-17T15:23:05.865Z,20
2017-05-17T15:24:13.952Z,20
2017-05-17T15:25:22.040Z,16
2017-05-17T15:26:30.127Z,16
2017-05-17T15:27:38.219Z,16
2017-05-17T15:28:46.309Z,16
2017-05-17T15:29:54.392Z,16
2017-05-17T15:31:02.483Z,16
2017-05-17T15:32:10.578Z,20
2017-05-17T15:33:18.658Z,16
2017-05-17T15:34:26.752Z,16
2017-05-17T15:35:34.858Z,16
2017-05-17T15:36:42.924Z,20
2017-05-17T15:37:51.034Z,20
2017-05-17T15:38:59.097Z,16
2017-05-17T15:40:07.184Z,16
2017-05-17T15:41:15.273Z,16
2017-05-17T15:42:23.365Z,16
2017-05-17T15:43:31.448Z,20
2017-05-17T15:44:39.537Z,16
2017-05-17T15:45:47.623Z,16
2017-05-17T15:46:55.711Z,16
2017-05-17T15:48:03.799Z,16
2017-05-17T15:49:11.890Z,16
2017-05-17T15:50:19.984Z,16
2017-05-17T15:51:28.066Z,16
2017-05-17T15:52:36.161Z,16
2017-05-17T15:53:44.241Z,12
2017-05-17T15:54:52.327Z,16
2017-05-17T15:56:00.415Z,16
2017-05-17T15:57:08.503Z,16
2017-05-17T15:58:16.591Z,16
2017-05-17T15:59:24.679Z,16
2017-05-17T16:00:32.768Z,16
2017-05-17T16:01:40.856Z,16
2017-05-17T16:02:48.944Z,16
2017-05-17T16:03:57.032Z,16
2017-05-17T16:05:05.122Z,16
2017-05-17T16:06:13.208Z,12
2017-05-17T16:07:21.297Z,16
2017-05-17T16:08:29.386Z,16
2017-05-17T16:09:37.473Z,16
2017-05-17T16:10:45.563Z,12
2017-05-17T16:11:53.648Z,16
2017-05-17T16:13:01.736Z,16
2017-05-17T16:14:09.825Z,16
2017-05-17T16:15:17.936Z,12
2017-05-17T16:16:26.001Z,12
2017-05-17T16:17:34.089Z,16
2017-05-17T16:18:42.177Z,16
2017-05-17T16:19:50.269Z,12
2017-05-17T16:20:58.352Z,12